Time,TemperatureF,DewpointF,PressureIn,WindDirection,WindDirectionDegrees,WindSpeedMPH,WindSpeedGustMPH,Humidity,HourlyPrecipIn,Conditions,Clouds,dailyrainin,SolarRadiationWatts/m^2,SoftwareType,DateUTC
2013-05-26 00:02:00,52.2,46.1,30.02,NE,45,1.3,1.3,80,0.00,,---,0.02,0.99,VWS V14.01,2013-05-26 07:02:00,
2013-05-26 00:07:00,52.2,46.1,29.95,ENE,66,1.1,1.1,80,0.00,,---,0.00,0.00,VWS V14.01,2013-05-26 07:07:00,
2013-05-26 00:12:00,52.2,46.1,29.95,WNW,295,2.2,2.2,80,0.00,,---,0.00,0.00,VWS V14.01,2013-05-26 07:12:00,
2013-05-26 00:17:00,52.2,46.2,29.95,NW,312,2.2,2.2,80,0.00,,---,0.00,1.83,VWS V14.01,2013-05-26 07:17:00,
2013-05-26 00:22:00,52.2,46.2,29.95,WSW,257,0.9,0.9,80,0.00,,---,0.00,0.00,VWS V14.01,2013-05-26 07:22:00,
2013-05-26 00:27:00,52.0,46.1,29.95,WNW,293,4.0,4.0,80,0.00,,---,0.00,3.36,VWS V14.01,2013-05-26 07:27:00,
2013-05-26 00:32:00,51.8,45.9,29.95,WNW,282,3.1,3.1,80,0.00,,---,0.00,0.15,VWS V14.01,2013-05-26 07:32:00,
2013-05-26 00:37:00,51.6,45.7,29.95,WSW,253,4.3,4.3,80,0.00,,---,0.00,0.69,VWS V14.01,2013-05-26 07:37:00,
2013-05-26 00:42:00,51.8,45.6,29.95,West,264,5.6,5.6,79,0.00,,---,0.00,1.91,VWS V14.01,2013-05-26 07:42:00,
2013-05-26 00:47:00,52.0,45.8,29.95,West,262,5.4,5.4,79,0.00,,---,0.00,0.15,VWS V14.01,2013-05-26 07:47:00,
2013-05-26 00:52:00,52.2,45.9,29.95,NW,307,1.8,1.8,79,0.00,,---,0.00,0.00,VWS V14.01,2013-05-26 07:52:00,
2013-05-26 00:57:00,52.2,45.9,29.95,WNW,300,2.0,2.0,79,0.00,,---,0.00,3.43,VWS V14.01,2013-05-26 07:57:00,
2013-05-26 01:02:00,52.2,46.0,29.95,NW,317,1.8,1.8,79,0.00,,---,0.00,0.00,VWS V14.01,2013-05-26 08:02:00,
2013-05-26 01:07:00,52.2,46.0,29.95,WNW,296,3.6,3.6,80,0.00,,---,0.00,0.00,VWS V14.01,2013-05-26 08:07:00,
2013-05-26 01:12:00,52.2,46.0,29.95,WSW,258,1.3,2.7,79,0.00,,---,0.00,0.00,VWS V14.01,2013-05-26 08:12:00,
2013-05-26 01:17:00,52.2,46.0,29.95,SW,228,1.6,1.6,79,0.00,,---,0.00,0.23,VWS V14.01,2013-05-26 08:17:00,
2013-05-26 01:22:00,52.0,45.8,29.95,West,267,0.7,0.7,79,0.00,,---,0.00,0.00,VWS V14.01,2013-05-26 08:22:00,
2013-05-26 01:27:00,52.0,45.8,29.95,WSW,246,0.7,0.9,79,0.00,,---,0.00,0.00,VWS V14.01,2013-05-26 08:27:00,
2013-05-26 01:32:00,52.0,45.8,29.95,NNW,336,1.3,1.3,80,0.00,,---,0.00,0.00,VWS V14.01,2013-05-26 08:32:00,
2013-05-26 01:37:00,51.8,45.7,29.95,NNE,32,0.9,1.1,80,0.00,,---,0.00,0.00,VWS V14.01,2013-05-26 08:37:00,
2013-05-26 01:42:00,51.8,45.7,29.95,South,176,0.9,0.9,80,0.00,,---,0.00,1.83,VWS V14.01,2013-05-26 08:42:00,
2013-05-26 01:47:00,51.8,45.8,29.95,West,281,1.8,1.8,80,0.00,,---,0.00,0.00,VWS V14.01,2013-05-26 08:47:00,
2013-05-26 01:52:00,51.6,45.7,29.95,SW,228,2.9,2.9,80,0.00,,---,0.00,0.00,VWS V14.01,2013-05-26 08:52:00,
2013-05-26 01:57:00,51.6,45.8,29.94,SSW,203,3.6,3.6,80,0.00,,---,0.00,1.14,VWS V14.01,2013-05-26 08:57:00,
2013-05-26 02:02:00,51.4,45.9,29.94,SSW,193,1.1,1.1,81,0.00,,---,0.00,1.22,VWS V14.01,2013-05-26 09:02:00,
2013-05-26 02:07:00,51.1,45.8,29.94,SSW,210,6.7,7.8,82,0.00,,---,0.00,2.90,VWS V14.01,2013-05-26 09:07:00,
2013-05-26 02:12:00,50.9,46.0,29.94,SSW,209,5.1,5.1,83,0.00,,---,0.00,1.60,VWS V14.01,2013-05-26 09:12:00,
2013-05-26 02:17:00,50.9,46.1,29.94,SW,221,7.6,7.6,84,0.00,,---,0.00,0.00,VWS V14.01,2013-05-26 09:17:00,
2013-05-26 02:22:00,50.7,46.1,29.94,SW,222,7.2,7.2,84,0.00,,---,0.00,0.00,VWS V14.01,2013-05-26 09:22:00,
2013-05-26 02:27:00,50.5,46.0,29.94,SW,222,4.3,4.3,84,0.00,,---,0.00,2.06,VWS V14.01,2013-05-26 09:27:00,
2013-05-26 02:32:00,50.5,46.0,29.94,SW,222,7.4,7.4,84,0.00,,---,0.00,0.00,VWS V14.01,2013-05-26 09:32:00,
2013-05-26 02:37:00,50.5,46.0,29.94,SW,218,4.0,4.0,84,0.00,,---,0.00,1.07,VWS V14.01,2013-05-26 09:37:00,
2013-05-26 02:42:00,50.5,46.0,29.93,SW,218,6.0,6.0,84,0.00,,---,0.00,0.38,VWS V14.01,2013-05-26 09:42:00,
2013-05-26 02:47:00,50.5,45.9,29.93,SSW,210,6.3,6.3,84,0.00,,---,0.00,0.00,VWS V14.01,2013-05-26 09:47:00,
2013-05-26 02:52:00,50.4,45.8,29.93,SW,234,3.8,5.4,84,0.00,,---,0.00,0.00,VWS V14.01,2013-05-26 09:52:00,
2013-05-26 02:57:00,50.4,45.8,29.93,SW,215,5.1,5.1,84,0.00,,---,0.00,0.08,VWS V14.01,2013-05-26 09:57:00,
2013-05-26 03:02:00,50.4,45.8,29.93,SW,219,4.7,4.7,84,0.00,,---,0.00,0.00,VWS V14.01,2013-05-26 10:02:00,
2013-05-26 03:07:00,50.4,45.8,29.94,SW,214,7.2,7.2,84,0.00,,---,0.00,0.00,VWS V14.01,2013-05-26 10:07:00,
2013-05-26 03:12:00,50.4,45.8,29.93,SW,223,5.6,5.6,84,0.00,,---,0.00,0.00,VWS V14.01,2013-05-26 10:12:00,
2013-05-26 03:17:00,50.4,45.8,29.93,SW,220,6.3,7.4,84,0.00,,---,0.00,1.37,VWS V14.01,2013-05-26 10:17:00,
2013-05-26 03:22:00,50.4,45.8,29.93,SW,225,6.3,6.3,84,0.00,,---,0.00,0.00,VWS V14.01,2013-05-26 10:22:00,
2013-05-26 03:27:00,50.5,46.0,29.93,SW,222,5.4,5.6,84,0.00,,---,0.00,0.00,VWS V14.01,2013-05-26 10:27:00,
2013-05-26 03:32:00,50.5,45.9,29.93,SSW,210,5.6,6.3,84,0.00,,---,0.00,0.00,VWS V14.01,2013-05-26 10:32:00,
2013-05-26 03:37:00,50.5,45.9,29.93,SW,224,5.1,6.3,84,0.00,,---,0.00,0.00,VWS V14.01,2013-05-26 10:37:00,
2013-05-26 03:42:00,50.5,45.9,29.93,SW,223,6.7,6.7,84,0.00,,---,0.00,3.05,VWS V14.01,2013-05-26 10:42:00,
2013-05-26 03:47:00,50.4,45.7,29.93,SW,216,4.3,5.8,84,0.00,,---,0.00,0.00,VWS V14.01,2013-05-26 10:47:00,
2013-05-26 03:52:00,50.4,45.8,29.93,SW,224,6.9,6.9,84,0.00,,---,0.00,1.83,VWS V14.01,2013-05-26 10:52:00,
2013-05-26 03:57:00,50.4,45.8,29.93,SSW,208,6.5,7.8,84,0.00,,---,0.00,1.76,VWS V14.01,2013-05-26 10:57:00,
2013-05-26 04:02:00,50.4,45.9,29.92,SW,219,6.9,7.4,84,0.00,,---,0.00,1.76,VWS V14.01,2013-05-26 11:02:00,
2013-05-26 04:07:00,50.4,45.9,29.92,SW,218,3.8,5.4,84,0.00,,---,0.00,0.53,VWS V14.01,2013-05-26 11:07:00,
2013-05-26 04:12:00,50.4,45.9,29.93,SW,222,2.0,3.1,85,0.00,,---,0.00,0.00,VWS V14.01,2013-05-26 11:12:00,
2013-05-26 04:17:00,50.4,45.8,29.93,WSW,250,1.8,1.8,84,0.00,,---,0.00,0.00,VWS V14.01,2013-05-26 11:17:00,
2013-05-26 04:22:00,50.4,45.9,29.93,South,188,2.7,2.7,85,0.00,,---,0.00,0.00,VWS V14.01,2013-05-26 11:22:00,
2013-05-26 04:27:00,50.2,45.7,29.93,NNW,334,2.0,2.0,84,0.00,,---,0.00,2.67,VWS V14.01,2013-05-26 11:27:00,
2013-05-26 04:32:00,50.4,46.0,29.93,NNE,18,0.7,1.3,85,0.00,,---,0.00,0.00,VWS V14.01,2013-05-26 11:32:00,
2013-05-26 04:37:00,50.4,46.0,29.93,NNW,333,0.7,0.7,85,0.00,,---,0.00,0.00,VWS V14.01,2013-05-26 11:37:00,
2013-05-26 04:42:00,50.5,46.2,29.93,SW,232,0.4,0.9,85,0.00,,---,0.00,0.00,VWS V14.01,2013-05-26 11:42:00,
2013-05-26 04:47:00,50.5,46.2,29.93,NNW,348,0.9,0.9,85,0.00,,---,0.00,2.75,VWS V14.01,2013-05-26 11:47:00,
2013-05-26 04:52:00,50.4,46.0,29.93,SSW,206,1.6,1.6,85,0.00,,---,0.00,2.06,VWS V14.01,2013-05-26 11:52:00,
2013-05-26 04:57:00,50.2,45.8,29.93,NW,319,2.0,2.0,85,0.00,,---,0.00,0.15,VWS V14.01,2013-05-26 11:57:00,
2013-05-26 05:02:00,50.0,45.6,29.94,South,177,1.8,2.2,85,0.00,,---,0.00,3.43,VWS V14.01,2013-05-26 12:02:00,
2013-05-26 05:07:00,50.2,45.8,29.94,ESE,123,0.7,0.7,85,0.00,,---,0.00,0.00,VWS V14.01,2013-05-26 12:07:00,
2013-05-26 05:11:00,50.2,45.8,29.94,East,84,1.1,1.3,85,0.00,,---,0.00,0.69,VWS V14.01,2013-05-26 12:11:00,
2013-05-26 05:16:00,50.2,45.8,29.94,SW,229,1.1,1.1,85,0.00,,---,0.00,0.00,VWS V14.01,2013-05-26 12:16:00,
2013-05-26 05:21:00,50.0,45.5,29.94,WNW,289,1.1,1.1,84,0.00,,---,0.00,0.00,VWS V14.01,2013-05-26 12:21:00,
2013-05-26 05:26:00,50.0,45.5,29.94,South,169,1.6,1.6,84,0.00,,---,0.00,3.05,VWS V14.01,2013-05-26 12:26:00,
2013-05-26 05:31:00,50.0,45.5,29.94,East,101,2.2,2.2,84,0.00,,---,0.00,0.00,VWS V14.01,2013-05-26 12:31:00,
2013-05-26 05:36:00,50.0,45.6,29.94,SE,127,1.3,2.2,85,0.00,,---,0.00,6.94,VWS V14.01,2013-05-26 12:36:00,
2013-05-26 05:41:00,50.0,45.6,29.94,SSW,194,2.9,2.9,85,0.00,,---,0.00,0.00,VWS V14.01,2013-05-26 12:41:00,
2013-05-26 05:46:00,50.0,45.7,29.94,SSW,213,4.9,4.9,85,0.00,,---,0.00,0.15,VWS V14.01,2013-05-26 12:46:00,
2013-05-26 05:51:00,50.0,45.7,29.94,SSW,209,3.8,3.8,85,0.01,,---,0.01,9.00,VWS V14.01,2013-05-26 12:51:00,
2013-05-26 05:56:00,49.8,45.7,29.94,SW,225,3.8,3.8,86,0.01,,---,0.01,9.77,VWS V14.01,2013-05-26 12:56:00,
2013-05-26 06:01:00,49.8,45.7,29.94,SSW,213,1.8,2.7,86,0.01,,---,0.01,1.83,VWS V14.01,2013-05-26 13:01:00,
2013-05-26 06:06:00,50.0,46.0,29.95,ESE,121,2.0,2.0,86,0.01,,---,0.01,4.20,VWS V14.01,2013-05-26 13:06:00,
2013-05-26 06:11:00,50.0,46.0,29.95,NE,37,1.3,1.3,86,0.01,,---,0.01,8.09,VWS V14.01,2013-05-26 13:11:00,
2013-05-26 06:16:00,50.2,46.2,29.95,SE,133,0.9,0.9,86,0.01,,---,0.01,19.54,VWS V14.01,2013-05-26 13:16:00,
2013-05-26 06:21:00,50.0,46.0,29.95,ESE,113,1.3,2.5,86,0.01,,---,0.01,17.09,VWS V14.01,2013-05-26 13:21:00,
2013-05-26 06:26:00,50.0,46.0,29.95,South,174,3.6,3.6,86,0.01,,---,0.01,22.13,VWS V14.01,2013-05-26 13:26:00,
2013-05-26 06:31:00,50.0,46.0,29.95,SSW,193,2.7,4.0,86,0.01,,---,0.01,29.00,VWS V14.01,2013-05-26 13:31:00,
2013-05-26 06:36:00,50.0,46.0,29.95,SSW,205,2.0,2.9,86,0.01,,---,0.01,31.75,VWS V14.01,2013-05-26 13:36:00,
2013-05-26 06:41:00,50.0,46.1,29.95,SW,233,1.3,1.3,86,0.01,,---,0.01,23.28,VWS V14.01,2013-05-26 13:41:00,
2013-05-26 06:46:00,50.2,46.3,29.95,SSW,203,0.7,2.0,86,0.01,,---,0.02,34.80,VWS V14.01,2013-05-26 13:46:00,
2013-05-26 06:51:00,50.0,46.0,29.95,SSW,196,3.1,4.0,86,0.01,,---,0.02,28.46,VWS V14.01,2013-05-26 13:51:00,
2013-05-26 06:56:00,50.0,46.1,29.95,South,190,4.3,4.5,86,0.01,,---,0.02,28.54,VWS V14.01,2013-05-26 13:56:00,
2013-05-26 07:01:00,50.0,46.1,29.95,South,183,2.5,2.5,86,0.01,,---,0.02,23.58,VWS V14.01,2013-05-26 14:01:00,
2013-05-26 07:06:00,50.0,46.1,29.95,South,191,3.1,3.1,86,0.01,,---,0.02,32.74,VWS V14.01,2013-05-26 14:06:00,
2013-05-26 07:11:00,50.0,46.2,29.95,South,171,4.0,4.3,87,0.01,,---,0.02,29.00,VWS V14.01,2013-05-26 14:11:00,
2013-05-26 07:16:00,50.0,46.2,29.95,SSW,202,2.5,2.7,87,0.01,,---,0.02,26.40,VWS V14.01,2013-05-26 14:16:00,
2013-05-26 07:21:00,50.0,46.1,29.95,SSW,198,3.8,3.8,86,0.01,,---,0.02,28.85,VWS V14.01,2013-05-26 14:21:00,
2013-05-26 07:26:00,50.0,46.2,29.95,South,185,1.8,2.2,87,0.01,,---,0.02,27.40,VWS V14.01,2013-05-26 14:26:00,
2013-05-26 07:31:00,50.2,46.4,29.95,SSW,212,2.2,2.2,87,0.01,,---,0.02,28.16,VWS V14.01,2013-05-26 14:31:00,
2013-05-26 07:36:00,50.2,46.4,29.96,NW,317,1.1,1.1,87,0.01,,---,0.02,15.72,VWS V14.01,2013-05-26 14:36:00,
2013-05-26 07:41:00,50.5,46.8,29.96,NNW,336,0.9,0.9,87,0.01,,---,0.02,19.15,VWS V14.01,2013-05-26 14:41:00,
2013-05-26 07:46:00,50.5,46.8,29.96,North,3,1.8,2.0,87,0.01,,---,0.02,23.50,VWS V14.01,2013-05-26 14:46:00,
2013-05-26 07:51:00,50.5,46.8,29.96,NNE,31,0.7,0.7,87,0.01,,---,0.03,22.51,VWS V14.01,2013-05-26 14:51:00,
2013-05-26 07:56:00,50.7,47.0,29.96,North,11,0.4,0.4,87,0.01,,---,0.03,22.05,VWS V14.01,2013-05-26 14:56:00,
2013-05-26 08:01:00,50.7,47.0,29.96,SE,131,1.8,1.8,87,0.02,,---,0.03,40.98,VWS V14.01,2013-05-26 15:01:00,
2013-05-26 08:06:00,50.7,47.0,29.96,East,97,1.3,1.3,87,0.02,,---,0.03,55.86,VWS V14.01,2013-05-26 15:06:00,
2013-05-26 08:11:00,50.9,47.3,29.96,ENE,76,0.7,0.7,88,0.02,,---,0.03,62.35,VWS V14.01,2013-05-26 15:11:00,
2013-05-26 08:16:00,51.1,47.5,29.96,SSE,166,0.4,0.4,87,0.02,,---,0.03,68.99,VWS V14.01,2013-05-26 15:16:00,
2013-05-26 08:21:00,51.3,47.7,29.96,NW,309,1.3,1.3,87,0.02,,---,0.03,77.23,VWS V14.01,2013-05-26 15:21:00,
2013-05-26 08:26:00,51.4,47.8,29.96,NNW,331,1.1,1.1,87,0.02,,---,0.04,58.23,VWS V14.01,2013-05-26 15:26:00,
2013-05-26 08:31:00,51.4,47.8,29.97,NE,54,0.4,1.1,87,0.01,,---,0.04,56.24,VWS V14.01,2013-05-26 15:31:00,
2013-05-26 08:36:00,51.4,47.7,29.97,North,354,1.1,1.1,87,0.01,,---,0.04,41.82,VWS V14.01,2013-05-26 15:36:00,
2013-05-26 08:41:00,51.3,47.5,29.97,SE,129,1.8,2.2,87,0.02,,---,0.04,54.41,VWS V14.01,2013-05-26 15:41:00,
2013-05-26 08:46:00,51.4,47.8,29.97,WSW,258,1.1,1.1,87,0.01,,---,0.04,58.76,VWS V14.01,2013-05-26 15:46:00,
2013-05-26 08:51:00,51.8,48.2,29.97,NNW,341,1.3,1.3,88,0.01,,---,0.04,52.27,VWS V14.01,2013-05-26 15:51:00,
2013-05-26 08:56:00,51.6,48.0,29.97,WNW,288,1.3,1.3,87,0.01,,---,0.04,57.69,VWS V14.01,2013-05-26 15:56:00,
2013-05-26 09:01:00,52.0,48.4,29.97,NW,321,2.5,2.5,88,0.01,,---,0.04,75.24,VWS V14.01,2013-05-26 16:01:00,
2013-05-26 09:06:00,52.2,48.6,29.97,NW,321,1.8,1.8,88,0.01,,---,0.05,95.47,VWS V14.01,2013-05-26 16:06:00,
2013-05-26 09:11:00,52.3,48.8,29.97,North,350,1.3,1.3,88,0.02,,---,0.05,102.11,VWS V14.01,2013-05-26 16:11:00,
2013-05-26 09:16:00,52.3,48.7,29.97,NNW,340,0.9,0.9,88,0.02,,---,0.05,103.56,VWS V14.01,2013-05-26 16:16:00,
2013-05-26 10:01:00,52.5,48.8,29.97,East,93,3.1,3.1,87,0.00,,---,0.05,106.23,VWS V14.01,2013-05-26 17:01:00,
2013-05-26 10:06:00,52.3,48.7,29.97,ESE,108,1.6,1.6,87,0.00,,---,0.05,110.04,VWS V14.01,2013-05-26 17:06:00,
2013-05-26 10:11:00,52.7,49.1,29.97,East,87,1.6,1.6,88,0.00,,---,0.05,69.83,VWS V14.01,2013-05-26 17:11:00,
2013-05-26 10:16:00,52.5,48.8,29.97,SE,142,2.9,2.9,87,0.00,,---,0.05,115.23,VWS V14.01,2013-05-26 17:16:00,
2013-05-26 10:21:00,52.7,49.0,29.97,South,188,1.3,2.5,87,0.00,,---,0.05,178.80,VWS V14.01,2013-05-26 17:21:00,
2013-05-26 10:26:00,53.2,49.5,29.97,SE,145,0.7,0.7,87,0.00,,---,0.05,243.28,VWS V14.01,2013-05-26 17:26:00,
2013-05-26 10:31:00,53.6,49.7,29.97,ESE,116,0.9,0.9,87,0.00,,---,0.05,283.35,VWS V14.01,2013-05-26 17:31:00,
2013-05-26 10:36:00,54.1,49.8,29.97,NE,34,1.8,1.8,85,0.00,,---,0.05,301.66,VWS V14.01,2013-05-26 17:36:00,
2013-05-26 10:41:00,54.3,49.2,29.97,North,354,3.8,4.9,83,0.00,,---,0.05,289.45,VWS V14.01,2013-05-26 17:41:00,
2013-05-26 10:46:00,54.7,48.5,29.97,NW,317,1.6,1.6,80,0.00,,---,0.05,265.26,VWS V14.01,2013-05-26 17:46:00,
2013-05-26 10:51:00,54.9,48.6,29.97,East,80,4.3,4.3,79,0.00,,---,0.05,207.19,VWS V14.01,2013-05-26 17:51:00,
2013-05-26 10:56:00,54.7,48.9,29.97,East,80,1.6,1.6,81,0.00,,---,0.05,203.53,VWS V14.01,2013-05-26 17:56:00,
2013-05-26 11:01:00,54.5,48.6,29.97,East,81,3.1,4.0,80,0.00,,---,0.05,267.17,VWS V14.01,2013-05-26 18:01:00,
2013-05-26 11:06:00,54.3,48.6,29.97,ESE,103,3.1,3.4,81,0.00,,---,0.05,245.04,VWS V14.01,2013-05-26 18:06:00,
2013-05-26 11:11:00,54.7,48.6,29.97,ENE,57,2.2,2.5,80,0.00,,---,0.05,308.91,VWS V14.01,2013-05-26 18:11:00,
2013-05-26 11:16:00,55.0,49.2,29.97,ESE,109,2.0,2.0,81,0.00,,---,0.05,368.74,VWS V14.01,2013-05-26 18:16:00,
2013-05-26 11:21:00,55.0,49.0,29.97,East,87,3.4,4.3,80,0.00,,---,0.05,342.03,VWS V14.01,2013-05-26 18:21:00,
2013-05-26 11:26:00,54.7,48.8,29.97,East,93,4.5,4.5,80,0.00,,---,0.05,316.70,VWS V14.01,2013-05-26 18:26:00,
2013-05-26 11:31:00,54.7,48.5,29.97,East,87,2.2,2.2,80,0.00,,---,0.05,355.08,VWS V14.01,2013-05-26 18:31:00,
2013-05-26 11:36:00,55.2,48.9,29.97,ESE,103,1.3,2.9,79,0.00,,---,0.05,363.48,VWS V14.01,2013-05-26 18:36:00,
2013-05-26 11:41:00,55.2,48.4,29.97,East,95,1.1,1.1,78,0.00,,---,0.05,379.04,VWS V14.01,2013-05-26 18:41:00,
2013-05-26 11:46:00,55.8,48.9,29.97,East,85,2.0,2.0,78,0.00,,---,0.05,314.03,VWS V14.01,2013-05-26 18:46:00,
2013-05-26 11:51:00,54.9,48.0,29.97,ESE,103,2.7,5.1,78,0.00,,---,0.05,339.59,VWS V14.01,2013-05-26 18:51:00,
2013-05-26 11:56:00,54.7,48.4,29.97,SSE,153,1.8,1.8,79,0.00,,---,0.05,296.17,VWS V14.01,2013-05-26 18:56:00,
2013-05-26 12:01:00,54.9,48.2,29.97,SE,129,2.5,3.8,78,0.00,,---,0.05,300.21,VWS V14.01,2013-05-26 19:01:00,
2013-05-26 12:06:00,55.0,48.6,29.97,SSE,163,1.3,1.3,79,0.00,,---,0.05,299.37,VWS V14.01,2013-05-26 19:06:00,
2013-05-26 12:11:00,54.5,47.7,29.97,ESE,109,3.8,3.8,78,0.00,,---,0.05,268.01,VWS V14.01,2013-05-26 19:11:00,
2013-05-26 12:16:00,54.1,47.5,29.97,ESE,119,5.8,6.5,78,0.00,,---,0.05,268.77,VWS V14.01,2013-05-26 19:16:00,
2013-05-26 12:21:00,53.6,47.7,29.97,SE,124,6.0,6.0,80,0.00,,---,0.05,175.52,VWS V14.01,2013-05-26 19:21:00,
2013-05-26 12:26:00,53.4,47.9,29.97,ESE,107,6.9,6.9,82,0.00,,---,0.05,130.19,VWS V14.01,2013-05-26 19:26:00,
2013-05-26 12:31:00,53.2,47.9,29.97,SE,143,6.0,6.0,82,0.00,,---,0.05,133.32,VWS V14.01,2013-05-26 19:31:00,
2013-05-26 12:36:00,53.8,48.7,29.97,ESE,109,6.0,6.0,83,0.00,,---,0.05,169.49,VWS V14.01,2013-05-26 19:36:00,
2013-05-26 12:41:00,53.8,49.0,29.97,ESE,109,5.4,5.4,84,0.00,,---,0.05,221.15,VWS V14.01,2013-05-26 19:41:00,
2013-05-26 12:46:00,54.0,49.0,29.98,South,173,1.8,1.8,83,0.00,,---,0.05,220.77,VWS V14.01,2013-05-26 19:46:00,
2013-05-26 12:51:00,54.1,48.9,29.98,SE,146,4.9,4.9,82,0.00,,---,0.05,206.04,VWS V14.01,2013-05-26 19:51:00,
2013-05-26 12:56:00,54.3,48.8,29.98,SE,141,6.9,6.9,82,0.00,,---,0.05,172.62,VWS V14.01,2013-05-26 19:56:00,
2013-05-26 13:01:00,54.3,48.8,29.98,ESE,105,5.4,5.4,81,0.00,,---,0.05,175.14,VWS V14.01,2013-05-26 20:01:00,
2013-05-26 13:06:00,54.9,48.9,29.98,ESE,110,4.9,4.9,80,0.00,,---,0.05,164.00,VWS V14.01,2013-05-26 20:06:00,
2013-05-26 13:11:00,54.7,48.9,29.37,ESE,119,3.1,5.1,81,0.00,,---,0.05,219.93,VWS V14.01,2013-05-26 20:11:00,
2013-05-26 13:16:00,54.9,49.2,29.98,SE,138,5.1,5.1,81,0.00,,---,0.05,260.76,VWS V14.01,2013-05-26 20:16:00,
2013-05-26 13:21:00,55.0,49.2,29.98,ESE,119,2.2,2.2,81,0.00,,---,0.05,439.87,VWS V14.01,2013-05-26 20:21:00,
2013-05-26 13:26:00,55.8,49.1,29.98,ESE,121,3.1,4.9,78,0.00,,---,0.05,391.41,VWS V14.01,2013-05-26 20:26:00,
2013-05-26 13:31:00,56.3,49.0,29.97,SE,143,4.7,4.7,76,0.00,,---,0.05,367.60,VWS V14.01,2013-05-26 20:31:00,
2013-05-26 13:36:00,56.8,48.8,29.97,SE,128,4.3,4.3,74,0.00,,---,0.05,461.54,VWS V14.01,2013-05-26 20:36:00,
2013-05-26 13:41:00,57.6,49.1,29.97,NE,35,1.3,1.3,73,0.00,,---,0.05,541.06,VWS V14.01,2013-05-26 20:41:00,
2013-05-26 13:46:00,57.9,48.1,29.97,SSE,164,5.6,5.6,70,0.00,,---,0.05,524.12,VWS V14.01,2013-05-26 20:46:00,
2013-05-26 13:51:00,57.4,47.6,29.97,East,101,4.7,4.7,70,0.00,,---,0.05,496.34,VWS V14.01,2013-05-26 20:51:00,
2013-05-26 13:56:00,57.6,47.4,29.97,SE,146,5.4,5.4,69,0.00,,---,0.05,566.62,VWS V14.01,2013-05-26 20:56:00,
2013-05-26 14:01:00,58.1,48.8,29.97,SE,124,0.9,0.9,71,0.00,,---,0.05,384.01,VWS V14.01,2013-05-26 21:01:00,
2013-05-26 14:06:00,57.6,47.5,29.97,East,92,3.8,4.9,69,0.00,,---,0.05,331.20,VWS V14.01,2013-05-26 21:06:00,
2013-05-26 14:11:00,57.7,47.8,29.96,East,91,2.0,2.0,70,0.00,,---,0.05,287.62,VWS V14.01,2013-05-26 21:11:00,
2013-05-26 14:16:00,57.9,47.8,29.96,East,89,3.8,3.8,69,0.00,,---,0.05,310.29,VWS V14.01,2013-05-26 21:16:00,
2013-05-26 14:21:00,58.3,48.1,29.96,ESE,111,3.6,3.6,69,0.00,,---,0.05,335.85,VWS V14.01,2013-05-26 21:21:00,
2013-05-26 14:26:00,58.6,48.0,29.97,East,101,2.7,7.2,68,0.00,,---,0.05,377.59,VWS V14.01,2013-05-26 21:26:00,
2013-05-26 14:31:00,59.2,47.7,29.97,ESE,119,6.0,6.0,66,0.00,,---,0.05,398.43,VWS V14.01,2013-05-26 21:31:00,
2013-05-26 14:36:00,59.2,47.8,29.96,East,98,4.3,4.3,66,0.00,,---,0.05,727.03,VWS V14.01,2013-05-26 21:36:00,
2013-05-26 14:41:00,60.1,48.4,29.96,ESE,116,4.5,4.5,65,0.00,,---,0.05,602.03,VWS V14.01,2013-05-26 21:41:00,
2013-05-26 14:46:00,59.5,47.5,29.96,ENE,68,4.7,4.7,64,0.00,,---,0.05,265.19,VWS V14.01,2013-05-26 21:46:00,
2013-05-26 14:51:00,60.1,48.2,29.96,East,94,2.5,4.3,65,0.00,,---,0.05,357.07,VWS V14.01,2013-05-26 21:51:00,
2013-05-26 14:56:00,60.3,47.7,29.96,ESE,106,7.2,7.2,63,0.00,,---,0.05,392.02,VWS V14.01,2013-05-26 21:56:00,
2013-05-26 15:01:00,60.8,48.2,29.96,SSE,159,4.3,7.2,63,0.00,,---,0.05,454.44,VWS V14.01,2013-05-26 22:01:00,
2013-05-26 15:06:00,60.4,48.0,29.97,ESE,120,3.6,7.4,64,0.00,,---,0.05,211.00,VWS V14.01,2013-05-26 22:06:00,
2013-05-26 15:11:00,59.9,48.0,29.97,SSE,148,8.5,8.5,65,0.00,,---,0.05,746.26,VWS V14.01,2013-05-26 22:11:00,
2013-05-26 15:16:00,60.4,48.8,29.97,SE,124,5.8,5.8,65,0.00,,---,0.05,646.06,VWS V14.01,2013-05-26 22:16:00,
2013-05-26 15:21:00,60.8,48.4,29.97,East,88,4.7,8.1,64,0.00,,---,0.05,391.64,VWS V14.01,2013-05-26 22:21:00,
2013-05-26 15:26:00,60.3,48.0,29.97,East,86,6.9,6.9,64,0.00,,---,0.05,281.29,VWS V14.01,2013-05-26 22:26:00,
2013-05-26 15:31:00,60.3,48.5,29.96,SE,135,7.4,8.1,65,0.00,,---,0.05,235.04,VWS V14.01,2013-05-26 22:31:00,
2013-05-26 15:36:00,60.1,48.6,29.96,ESE,106,5.1,5.1,66,0.00,,---,0.05,209.94,VWS V14.01,2013-05-26 22:36:00,
2013-05-26 15:41:00,60.3,49.0,29.96,ESE,111,3.4,4.7,66,0.00,,---,0.05,193.91,VWS V14.01,2013-05-26 22:41:00,
2013-05-26 15:46:00,60.6,48.8,29.96,SE,139,6.5,6.5,65,0.00,,---,0.05,190.93,VWS V14.01,2013-05-26 22:46:00,
2013-05-26 15:51:00,60.6,48.8,29.96,SE,139,4.3,4.3,65,0.00,,---,0.05,195.51,VWS V14.01,2013-05-26 22:51:00,
2013-05-26 15:56:00,60.6,49.1,29.96,East,89,4.3,4.3,66,0.00,,---,0.05,163.61,VWS V14.01,2013-05-26 22:56:00,
2013-05-26 16:01:00,60.8,48.6,29.96,ESE,108,4.0,4.3,64,0.00,,---,0.05,160.10,VWS V14.01,2013-05-26 23:01:00,
2013-05-26 16:06:00,60.6,48.9,29.96,East,92,5.1,5.1,65,0.00,,---,0.05,148.20,VWS V14.01,2013-05-26 23:06:00,
2013-05-26 16:11:00,60.1,48.3,29.97,ESE,118,7.4,9.4,65,0.00,,---,0.05,170.48,VWS V14.01,2013-05-26 23:11:00,
2013-05-26 16:16:00,60.3,48.8,29.97,ESE,123,5.6,5.6,66,0.00,,---,0.05,180.48,VWS V14.01,2013-05-26 23:16:00,
2013-05-26 16:21:00,60.4,49.0,29.97,ENE,78,3.8,6.3,66,0.00,,---,0.05,171.63,VWS V14.01,2013-05-26 23:21:00,
2013-05-26 16:26:00,60.4,48.5,29.97,ENE,74,6.7,8.5,65,0.00,,---,0.05,158.81,VWS V14.01,2013-05-26 23:26:00,
2013-05-26 16:31:00,60.3,48.9,29.97,East,87,5.4,5.4,66,0.00,,---,0.05,154.91,VWS V14.01,2013-05-26 23:31:00,
2013-05-26 16:36:00,60.3,48.8,29.97,SE,130,6.5,9.0,66,0.00,,---,0.05,164.84,VWS V14.01,2013-05-26 23:36:00,
2013-05-26 16:41:00,60.4,49.0,29.97,East,84,3.4,7.2,66,0.00,,---,0.05,202.15,VWS V14.01,2013-05-26 23:41:00,
2013-05-26 16:46:00,60.6,48.2,29.97,East,88,3.1,3.6,64,0.00,,---,0.05,217.95,VWS V14.01,2013-05-26 23:46:00,
2013-05-26 16:51:00,61.2,47.8,29.97,East,82,7.8,8.1,61,0.00,,---,0.05,210.62,VWS V14.01,2013-05-26 23:51:00,
2013-05-26 16:56:00,60.8,47.5,29.97,ENE,64,9.0,9.0,62,0.00,,---,0.05,186.20,VWS V14.01,2013-05-26 23:56:00,
2013-05-26 17:01:00,60.8,47.5,29.97,East,93,6.0,6.0,61,0.00,,---,0.05,144.54,VWS V14.01,2013-05-27 00:01:00,
2013-05-26 17:06:00,60.8,47.2,29.97,East,96,2.9,5.8,61,0.00,,---,0.05,153.01,VWS V14.01,2013-05-27 00:06:00,
2013-05-26 17:11:00,60.8,46.6,29.97,ENE,71,6.5,8.1,59,0.00,,---,0.05,190.48,VWS V14.01,2013-05-27 00:11:00,
2013-05-26 17:16:00,60.8,46.8,29.97,North,8,4.9,4.9,60,0.00,,---,0.05,249.47,VWS V14.01,2013-05-27 00:16:00,
2013-05-26 17:21:00,61.2,46.8,29.97,ENE,78,4.5,6.3,59,0.00,,---,0.05,199.79,VWS V14.01,2013-05-27 00:21:00,
2013-05-26 17:26:00,60.6,46.7,29.97,ENE,63,5.6,8.1,60,0.00,,---,0.05,226.95,VWS V14.01,2013-05-27 00:26:00,
2013-05-26 17:31:00,60.8,47.0,29.97,ENE,69,4.9,5.8,60,0.00,,---,0.05,186.66,VWS V14.01,2013-05-27 00:31:00,
2013-05-26 17:36:00,61.0,47.1,29.97,East,92,5.4,5.6,60,0.00,,---,0.05,177.27,VWS V14.01,2013-05-27 00:36:00,
2013-05-26 17:41:00,61.3,47.7,29.97,ENE,78,4.5,4.5,61,0.00,,---,0.05,191.62,VWS V14.01,2013-05-27 00:41:00,
2013-05-26 17:46:00,61.0,47.4,29.97,East,95,4.9,4.9,61,0.00,,---,0.05,202.38,VWS V14.01,2013-05-27 00:46:00,
2013-05-26 17:51:00,61.0,48.2,29.97,East,100,3.8,5.4,63,0.00,,---,0.05,329.44,VWS V14.01,2013-05-27 00:51:00,
2013-05-26 17:56:00,61.5,48.3,29.96,SSE,149,6.3,6.5,62,0.00,,---,0.05,315.86,VWS V14.01,2013-05-27 00:56:00,
2013-05-26 18:01:00,61.5,48.1,29.97,ESE,113,4.9,7.6,61,0.00,,---,0.05,389.58,VWS V14.01,2013-05-27 01:01:00,
2013-05-26 18:06:00,61.5,47.5,29.97,ESE,111,6.0,6.0,60,0.00,,---,0.05,361.49,VWS V14.01,2013-05-27 01:06:00,
2013-05-26 18:11:00,61.5,48.1,29.96,ESE,106,2.0,6.0,61,0.00,,---,0.05,374.47,VWS V14.01,2013-05-27 01:11:00,
2013-05-26 18:16:00,62.2,48.0,29.96,ESE,117,6.7,7.4,60,0.00,,---,0.05,389.12,VWS V14.01,2013-05-27 01:16:00,
2013-05-26 18:21:00,61.3,47.4,29.96,ESE,118,4.7,6.9,60,0.00,,---,0.05,186.74,VWS V14.01,2013-05-27 01:21:00,
2013-05-26 18:26:00,61.7,48.3,29.96,ENE,72,2.7,4.3,61,0.00,,---,0.05,240.77,VWS V14.01,2013-05-27 01:26:00,
2013-05-26 18:31:00,61.5,47.6,29.96,ESE,106,6.9,8.7,60,0.00,,---,0.05,253.82,VWS V14.01,2013-05-27 01:31:00,
2013-05-26 18:36:00,61.2,47.4,29.96,SE,125,5.4,6.0,60,0.00,,---,0.05,95.62,VWS V14.01,2013-05-27 01:36:00,
2013-05-26 18:41:00,60.6,47.4,29.96,ESE,108,9.0,9.0,62,0.00,,---,0.05,81.20,VWS V14.01,2013-05-27 01:41:00,
2013-05-26 18:46:00,60.1,47.6,29.96,ESE,110,8.7,8.7,63,0.00,,---,0.05,99.13,VWS V14.01,2013-05-27 01:46:00,
2013-05-26 18:51:00,59.4,47.8,29.96,ENE,77,5.8,9.8,66,0.00,,---,0.05,94.93,VWS V14.01,2013-05-27 01:51:00,
2013-05-26 18:56:00,59.5,48.1,29.96,ESE,106,7.6,7.6,66,0.00,,---,0.05,82.19,VWS V14.01,2013-05-27 01:56:00,
2013-05-26 19:01:00,59.0,47.9,29.97,East,98,5.1,6.9,67,0.00,,---,0.05,57.08,VWS V14.01,2013-05-27 02:01:00,
2013-05-26 19:06:00,58.8,47.9,29.97,ESE,113,5.1,8.3,67,0.00,,---,0.05,48.76,VWS V14.01,2013-05-27 02:06:00,
2013-05-26 19:11:00,58.6,47.8,29.97,East,84,8.3,8.3,67,0.00,,---,0.05,52.12,VWS V14.01,2013-05-27 02:11:00,
2013-05-26 19:15:00,58.5,48.0,29.97,ESE,115,4.9,8.7,68,0.00,,---,0.05,42.12,VWS V14.01,2013-05-27 02:15:00,
2013-05-26 19:20:00,58.5,48.1,29.96,ENE,75,4.3,4.9,68,0.00,,---,0.05,36.63,VWS V14.01,2013-05-27 02:20:00,
2013-05-26 19:25:00,58.6,48.2,29.96,ENE,76,4.3,4.5,68,0.00,,---,0.05,29.15,VWS V14.01,2013-05-27 02:25:00,
2013-05-26 19:30:00,58.5,48.2,29.96,East,98,9.2,9.6,69,0.00,,---,0.05,17.02,VWS V14.01,2013-05-27 02:30:00,
2013-05-26 19:35:00,58.3,48.4,29.97,East,95,6.5,7.8,70,0.00,,---,0.05,13.35,VWS V14.01,2013-05-27 02:35:00,
2013-05-26 19:40:00,58.3,48.4,29.97,ENE,75,6.9,6.9,70,0.00,,---,0.05,17.02,VWS V14.01,2013-05-27 02:40:00,
2013-05-26 19:45:00,58.1,48.3,29.97,East,85,3.6,9.4,70,0.00,,---,0.05,13.89,VWS V14.01,2013-05-27 02:45:00,
2013-05-26 19:50:00,57.9,48.4,29.97,ENE,68,6.3,6.3,70,0.00,,---,0.05,9.62,VWS V14.01,2013-05-27 02:50:00,
2013-05-26 19:55:00,57.7,48.5,29.97,East,90,6.9,6.9,71,0.00,,---,0.05,14.73,VWS V14.01,2013-05-27 02:55:00,
2013-05-26 20:00:00,57.6,48.7,29.97,East,85,7.2,8.1,72,0.00,,---,0.05,8.78,VWS V14.01,2013-05-27 03:00:00,
2013-05-26 20:05:00,57.4,48.6,29.96,East,80,5.6,6.9,72,0.00,,---,0.05,5.11,VWS V14.01,2013-05-27 03:05:00,
2013-05-26 20:10:00,57.4,48.8,29.96,ENE,75,4.7,4.7,73,0.00,,---,0.05,5.49,VWS V14.01,2013-05-27 03:10:00,
2013-05-26 20:15:00,57.6,49.0,29.96,East,80,4.0,4.0,73,0.00,,---,0.05,9.46,VWS V14.01,2013-05-27 03:15:00,
2013-05-26 20:20:00,57.6,48.9,29.96,ENE,63,7.6,7.6,73,0.00,,---,0.05,3.05,VWS V14.01,2013-05-27 03:20:00,
2013-05-26 20:25:00,57.4,48.8,29.96,ENE,58,5.6,5.6,73,0.00,,---,0.05,17.25,VWS V14.01,2013-05-27 03:25:00,
2013-05-26 20:30:00,57.4,48.9,29.96,East,88,4.5,4.5,73,0.00,,---,0.05,6.33,VWS V14.01,2013-05-27 03:30:00,
2013-05-26 20:35:00,57.2,48.8,29.96,East,99,7.6,7.6,74,0.00,,---,0.05,12.44,VWS V14.01,2013-05-27 03:35:00,
2013-05-26 20:40:00,57.2,48.9,29.96,East,79,6.5,6.5,74,0.00,,---,0.05,8.62,VWS V14.01,2013-05-27 03:40:00,
2013-05-26 20:45:00,57.2,49.0,29.96,East,100,7.2,7.2,74,0.00,,---,0.05,0.08,VWS V14.01,2013-05-27 03:45:00,
2013-05-26 20:50:00,57.0,48.9,29.96,East,86,3.4,3.4,74,0.00,,---,0.05,1.83,VWS V14.01,2013-05-27 03:50:00,
2013-05-26 20:55:00,57.2,48.9,29.96,East,94,2.9,10.1,74,0.00,,---,0.05,2.67,VWS V14.01,2013-05-27 03:55:00,
2013-05-26 21:00:00,57.2,48.9,29.96,East,93,5.4,7.6,74,0.00,,---,0.05,3.05,VWS V14.01,2013-05-27 04:00:00,
2013-05-26 21:01:00,57.2,49.0,29.96,ENE,72,5.6,5.6,74,0.00,,---,0.05,2.37,VWS V14.01,2013-05-27 04:01:00,
2013-05-26 21:06:00,57.2,48.9,29.96,NE,35,5.1,5.1,74,0.00,,---,0.05,0.00,VWS V14.01,2013-05-27 04:06:00,
2013-05-26 21:11:00,57.2,49.0,29.96,ENE,64,3.8,3.8,74,0.00,,---,0.05,0.00,VWS V14.01,2013-05-27 04:11:00,
2013-05-26 21:16:00,57.0,49.0,29.96,ENE,77,3.6,3.6,74,0.00,,---,0.05,0.00,VWS V14.01,2013-05-27 04:16:00,
2013-05-26 21:21:00,56.8,48.6,29.96,ENE,59,6.5,9.0,74,0.00,,---,0.05,3.59,VWS V14.01,2013-05-27 04:21:00,
2013-05-26 21:26:00,56.8,48.8,29.96,East,81,4.7,5.4,74,0.00,,---,0.05,0.31,VWS V14.01,2013-05-27 04:26:00,
2013-05-26 21:31:00,56.7,48.6,29.96,East,98,5.4,5.4,74,0.00,,---,0.05,0.00,VWS V14.01,2013-05-27 04:31:00,
2013-05-26 21:36:00,56.7,48.4,29.96,East,96,6.5,6.5,74,0.00,,---,0.05,2.37,VWS V14.01,2013-05-27 04:36:00,
2013-05-26 21:41:00,56.5,48.1,29.96,East,91,8.5,8.5,73,0.00,,---,0.05,0.00,VWS V14.01,2013-05-27 04:41:00,
2013-05-26 21:46:00,56.3,48.3,29.97,ENE,76,7.4,7.8,74,0.00,,---,0.05,0.84,VWS V14.01,2013-05-27 04:46:00,
2013-05-26 21:51:00,56.3,48.1,29.97,ENE,71,5.1,9.2,74,0.00,,---,0.05,1.98,VWS V14.01,2013-05-27 04:51:00,
2013-05-26 21:56:00,56.1,47.9,29.97,ENE,58,6.7,6.7,74,0.00,,---,0.05,0.00,VWS V14.01,2013-05-27 04:56:00,
2013-05-26 22:01:00,55.9,47.5,29.97,ENE,69,5.6,6.7,73,0.00,,---,0.05,0.00,VWS V14.01,2013-05-27 05:01:00,
2013-05-26 22:06:00,55.8,47.1,29.97,East,95,6.7,6.7,72,0.00,,---,0.05,2.75,VWS V14.01,2013-05-27 05:06:00,
2013-05-26 22:11:00,55.6,46.9,29.97,East,81,6.0,9.4,72,0.00,,---,0.05,2.29,VWS V14.01,2013-05-27 05:11:00,
2013-05-26 22:16:00,55.6,47.1,29.97,NE,39,1.8,3.1,73,0.00,,---,0.05,3.21,VWS V14.01,2013-05-27 05:16:00,
2013-05-26 22:21:00,55.6,46.9,29.96,East,95,3.6,9.8,72,0.00,,---,0.05,0.00,VWS V14.01,2013-05-27 05:21:00,
2013-05-26 22:26:00,55.4,46.7,29.96,East,98,7.8,7.8,72,0.00,,---,0.05,0.00,VWS V14.01,2013-05-27 05:26:00,
2013-05-26 22:31:00,55.4,46.7,29.96,East,100,5.6,5.6,72,0.00,,---,0.05,0.00,VWS V14.01,2013-05-27 05:31:00,
2013-05-26 22:36:00,55.4,46.9,29.96,ESE,123,6.0,6.0,73,0.00,,---,0.05,4.35,VWS V14.01,2013-05-27 05:36:00,
2013-05-26 22:41:00,55.2,46.6,29.96,ENE,66,11.0,11.0,73,0.00,,---,0.05,0.08,VWS V14.01,2013-05-27 05:41:00,
2013-05-26 22:46:00,55.2,46.6,29.97,East,94,4.5,6.9,73,0.00,,---,0.05,0.00,VWS V14.01,2013-05-27 05:46:00,
2013-05-26 22:51:00,55.2,46.8,29.97,East,86,2.7,2.7,73,0.00,,---,0.05,0.00,VWS V14.01,2013-05-27 05:51:00,
2013-05-26 22:56:00,55.2,46.7,29.97,East,86,6.9,6.9,73,0.00,,---,0.05,0.00,VWS V14.01,2013-05-27 05:56:00,
2013-05-26 23:01:00,55.0,46.5,29.97,NNE,20,4.7,4.7,73,0.00,,---,0.05,0.00,VWS V14.01,2013-05-27 06:01:00,
2013-05-26 23:06:00,55.0,46.7,29.96,ENE,62,2.7,4.5,73,0.00,,---,0.05,0.00,VWS V14.01,2013-05-27 06:06:00,
2013-05-26 23:11:00,55.0,46.6,29.96,ESE,109,3.6,6.5,73,0.00,,---,0.05,0.46,VWS V14.01,2013-05-27 06:11:00,
2013-05-26 23:16:00,54.9,46.5,29.96,ENE,76,7.2,7.2,73,0.00,,---,0.05,0.00,VWS V14.01,2013-05-27 06:16:00,
2013-05-26 23:21:00,54.9,46.6,29.96,East,79,4.9,4.9,74,0.00,,---,0.05,0.00,VWS V14.01,2013-05-27 06:21:00,
2013-05-26 23:26:00,54.7,46.5,29.95,ENE,59,3.4,4.5,74,0.00,,---,0.05,0.00,VWS V14.01,2013-05-27 06:26:00,
2013-05-26 23:31:00,54.7,46.5,29.95,NE,54,6.7,7.8,74,0.00,,---,0.05,3.28,VWS V14.01,2013-05-27 06:31:00,
2013-05-26 23:36:00,54.7,46.7,29.95,ENE,77,5.6,6.0,74,0.00,,---,0.05,0.00,VWS V14.01,2013-05-27 06:36:00,
2013-05-26 23:41:00,54.5,46.6,29.95,ENE,77,6.5,8.5,75,0.00,,---,0.05,0.00,VWS V14.01,2013-05-27 06:41:00,
2013-05-26 23:46:00,54.3,46.6,29.95,ENE,78,6.5,7.4,75,0.00,,---,0.05,0.00,VWS V14.01,2013-05-27 06:46:00,
2013-05-26 23:51:00,54.3,46.6,29.95,East,80,6.9,6.9,75,0.00,,---,0.05,0.00,VWS V14.01,2013-05-27 06:51:00,
2013-05-26 23:56:00,54.5,46.7,29.95,ESE,108,4.9,9.2,75,0.00,,---,0.05,0.00,VWS V14.01,2013-05-27 06:56:00,